sensor_id;sensor_type;location;lat;lon;timestamp;temperature;humidity
77693;SHT31;66984;47.404;18.836;2023-03-01T00:00:06;6.97;59.68
77693;SHT31;66984;47.404;18.836;2023-03-01T00:01:13;6.96;59.76
77693;SHT31;66984;47.404;18.836;2023-03-01T00:02:16;6.96;59.84
77693;SHT31;66984;47.404;18.836;2023-03-01T00:03:19;6.96;59.71
77693;SHT31;66984;47.404;18.836;2023-03-01T00:04:22;6.95;59.71
77693;SHT31;66984;47.404;18.836;2023-03-01T00:05:25;6.99;59.75
77693;SHT31;66984;47.404;18.836;2023-03-01T00:06:27;6.89;58.72
77693;SHT31;66984;47.404;18.836;2023-03-01T00:07:31;6.82;58.36
77693;SHT31;66984;47.404;18.836;2023-03-01T00:08:34;6.81;58.28
77693;SHT31;66984;47.404;18.836;2023-03-01T00:09:37;6.83;58.46
77693;SHT31;66984;47.404;18.836;2023-03-01T00:10:40;6.79;58.11
77693;SHT31;66984;47.404;18.836;2023-03-01T00:11:43;6.78;58.07
77693;SHT31;66984;47.404;18.836;2023-03-01T00:12:46;6.68;58.15
77693;SHT31;66984;47.404;18.836;2023-03-01T00:13:51;6.69;58.29
77693;SHT31;66984;47.404;18.836;2023-03-01T00:14:54;6.59;58.32
77693;SHT31;66984;47.404;18.836;2023-03-01T00:15:57;6.52;58.52
77693;SHT31;66984;47.404;18.836;2023-03-01T00:16:59;6.48;58.85
77693;SHT31;66984;47.404;18.836;2023-03-01T00:18:02;6.46;58.91
77693;SHT31;66984;47.404;18.836;2023-03-01T00:19:06;6.45;59.00
77693;SHT31;66984;47.404;18.836;2023-03-01T00:20:09;6.44;59.04
77693;SHT31;66984;47.404;18.836;2023-03-01T00:21:12;6.41;59.03
77693;SHT31;66984;47.404;18.836;2023-03-01T00:22:15;6.40;59.29
77693;SHT31;66984;47.404;18.836;2023-03-01T00:23:18;6.40;59.30
77693;SHT31;66984;47.404;18.836;2023-03-01T00:24:21;6.38;59.27
77693;SHT31;66984;47.404;18.836;2023-03-01T00:25:23;6.44;59.11
77693;SHT31;66984;47.404;18.836;2023-03-01T00:26:26;6.46;59.12
77693;SHT31;66984;47.404;18.836;2023-03-01T00:27:29;6.49;59.12
77693;SHT31;66984;47.404;18.836;2023-03-01T00:28:32;6.51;59.32
77693;SHT31;66984;47.404;18.836;2023-03-01T00:29:35;6.55;59.21
77693;SHT31;66984;47.404;18.836;2023-03-01T00:30:37;6.56;59.23
77693;SHT31;66984;47.404;18.836;2023-03-01T00:31:40;6.58;59.09
77693;SHT31;66984;47.404;18.836;2023-03-01T00:32:43;6.64;59.23
77693;SHT31;66984;47.404;18.836;2023-03-01T00:33:46;6.67;59.50
77693;SHT31;66984;47.404;18.836;2023-03-01T00:34:49;6.68;59.45
77693;SHT31;66984;47.404;18.836;2023-03-01T00:35:58;6.69;59.37
77693;SHT31;66984;47.404;18.836;2023-03-01T00:37:01;6.72;59.49
77693;SHT31;66984;47.404;18.836;2023-03-01T00:38:07;6.73;59.77
77693;SHT31;66984;47.404;18.836;2023-03-01T00:39:13;6.79;59.55
77693;SHT31;66984;47.404;18.836;2023-03-01T00:40:16;6.82;59.53
77693;SHT31;66984;47.404;18.836;2023-03-01T00:41:19;6.86;59.80
77693;SHT31;66984;47.404;18.836;2023-03-01T00:42:22;6.85;59.84
77693;SHT31;66984;47.404;18.836;2023-03-01T00:43:25;6.85;60.02
77693;SHT31;66984;47.404;18.836;2023-03-01T00:44:28;6.85;60.17
77693;SHT31;66984;47.404;18.836;2023-03-01T00:45:30;6.85;60.67
77693;SHT31;66984;47.404;18.836;2023-03-01T00:46:35;6.88;61.49
77693;SHT31;66984;47.404;18.836;2023-03-01T00:47:37;6.89;61.47
77693;SHT31;66984;47.404;18.836;2023-03-01T00:48:40;6.91;61.15
77693;SHT31;66984;47.404;18.836;2023-03-01T00:49:43;6.92;60.74
77693;SHT31;66984;47.404;18.836;2023-03-01T00:50:46;6.93;60.36
77693;SHT31;66984;47.404;18.836;2023-03-01T00:51:48;6.91;60.57
77693;SHT31;66984;47.404;18.836;2023-03-01T00:52:55;6.92;60.82
77693;SHT31;66984;47.404;18.836;2023-03-01T00:54:00;6.92;60.89
77693;SHT31;66984;47.404;18.836;2023-03-01T00:55:04;6.92;60.83
77693;SHT31;66984;47.404;18.836;2023-03-01T00:56:09;6.91;60.95
77693;SHT31;66984;47.404;18.836;2023-03-01T00:57:11;6.88;60.16
77693;SHT31;66984;47.404;18.836;2023-03-01T00:58:14;6.88;60.07
77693;SHT31;66984;47.404;18.836;2023-03-01T00:59:17;6.91;60.24
77693;SHT31;66984;47.404;18.836;2023-03-01T01:00:20;6.89;60.72
77693;SHT31;66984;47.404;18.836;2023-03-01T01:01:29;6.89;60.65
77693;SHT31;66984;47.404;18.836;2023-03-01T01:02:33;6.91;60.87
77693;SHT31;66984;47.404;18.836;2023-03-01T01:03:36;6.92;60.84
77693;SHT31;66984;47.404;18.836;2023-03-01T01:04:38;6.91;60.94
77693;SHT31;66984;47.404;18.836;2023-03-01T01:05:41;6.95;61.08
77693;SHT31;66984;47.404;18.836;2023-03-01T01:06:45;6.96;61.15
77693;SHT31;66984;47.404;18.836;2023-03-01T01:07:48;6.95;61.12
77693;SHT31;66984;47.404;18.836;2023-03-01T01:08:52;6.95;61.36
77693;SHT31;66984;47.404;18.836;2023-03-01T01:09:56;6.93;60.87
77693;SHT31;66984;47.404;18.836;2023-03-01T01:10:58;6.92;60.72
77693;SHT31;66984;47.404;18.836;2023-03-01T01:12:01;6.95;60.55
77693;SHT31;66984;47.404;18.836;2023-03-01T01:13:04;6.97;60.24
77693;SHT31;66984;47.404;18.836;2023-03-01T01:14:07;6.95;60.22
77693;SHT31;66984;47.404;18.836;2023-03-01T01:15:09;6.99;60.32
77693;SHT31;66984;47.404;18.836;2023-03-01T01:16:17;6.97;60.62
77693;SHT31;66984;47.404;18.836;2023-03-01T01:17:20;6.96;60.60
77693;SHT31;66984;47.404;18.836;2023-03-01T01:18:23;6.95;60.40
77693;SHT31;66984;47.404;18.836;2023-03-01T01:19:26;6.93;60.20
77693;SHT31;66984;47.404;18.836;2023-03-01T01:20:29;6.95;60.11
77693;SHT31;66984;47.404;18.836;2023-03-01T01:21:31;6.93;60.22
77693;SHT31;66984;47.404;18.836;2023-03-01T01:22:34;6.92;60.16
77693;SHT31;66984;47.404;18.836;2023-03-01T01:23:38;6.95;60.22
77693;SHT31;66984;47.404;18.836;2023-03-01T01:24:42;6.96;60.64
77693;SHT31;66984;47.404;18.836;2023-03-01T01:25:44;6.93;60.69
77693;SHT31;66984;47.404;18.836;2023-03-01T01:26:47;6.92;60.60
77693;SHT31;66984;47.404;18.836;2023-03-01T01:27:50;6.92;60.79
77693;SHT31;66984;47.404;18.836;2023-03-01T01:28:54;6.93;60.85
77693;SHT31;66984;47.404;18.836;2023-03-01T01:29:56;6.93;61.12
77693;SHT31;66984;47.404;18.836;2023-03-01T01:30:59;6.89;61.23
77693;SHT31;66984;47.404;18.836;2023-03-01T01:32:02;6.91;61.12
77693;SHT31;66984;47.404;18.836;2023-03-01T01:33:04;6.92;60.90
77693;SHT31;66984;47.404;18.836;2023-03-01T01:34:11;6.89;60.85
77693;SHT31;66984;47.404;18.836;2023-03-01T01:35:14;6.89;61.01
77693;SHT31;66984;47.404;18.836;2023-03-01T01:36:17;6.89;61.04
77693;SHT31;66984;47.404;18.836;2023-03-01T01:37:20;6.89;61.07
77693;SHT31;66984;47.404;18.836;2023-03-01T01:38:23;6.88;61.33
77693;SHT31;66984;47.404;18.836;2023-03-01T01:39:26;6.91;61.34
77693;SHT31;66984;47.404;18.836;2023-03-01T01:40:29;6.89;61.46
77693;SHT31;66984;47.404;18.836;2023-03-01T01:41:32;6.89;61.49
77693;SHT31;66984;47.404;18.836;2023-03-01T01:42:34;6.91;61.40
77693;SHT31;66984;47.404;18.836;2023-03-01T01:43:40;6.91;61.28
77693;SHT31;66984;47.404;18.836;2023-03-01T01:44:47;6.89;61.33
77693;SHT31;66984;47.404;18.836;2023-03-01T01:45:51;6.89;61.48
77693;SHT31;66984;47.404;18.836;2023-03-01T01:46:56;6.92;61.51
77693;SHT31;66984;47.404;18.836;2023-03-01T01:48:05;6.88;61.34
77693;SHT31;66984;47.404;18.836;2023-03-01T01:49:16;6.92;61.54
77693;SHT31;66984;47.404;18.836;2023-03-01T01:50:19;6.93;61.20
77693;SHT31;66984;47.404;18.836;2023-03-01T01:51:29;6.95;61.25
77693;SHT31;66984;47.404;18.836;2023-03-01T01:52:40;6.92;60.97
77693;SHT31;66984;47.404;18.836;2023-03-01T01:53:45;6.92;60.82
77693;SHT31;66984;47.404;18.836;2023-03-01T01:54:54;6.86;59.32
77693;SHT31;66984;47.404;18.836;2023-03-01T01:56:00;6.83;59.33
77693;SHT31;66984;47.404;18.836;2023-03-01T01:57:07;6.83;59.31
77693;SHT31;66984;47.404;18.836;2023-03-01T01:58:14;6.88;58.97
77693;SHT31;66984;47.404;18.836;2023-03-01T01:59:19;6.88;59.13
77693;SHT31;66984;47.404;18.836;2023-03-01T02:00:28;6.83;59.13
77693;SHT31;66984;47.404;18.836;2023-03-01T02:01:31;6.89;59.04
77693;SHT31;66984;47.404;18.836;2023-03-01T02:02:34;6.85;59.19
77693;SHT31;66984;47.404;18.836;2023-03-01T02:03:39;6.88;59.65
77693;SHT31;66984;47.404;18.836;2023-03-01T02:04:44;6.89;59.95
77693;SHT31;66984;47.404;18.836;2023-03-01T02:06:00;6.92;59.65
77693;SHT31;66984;47.404;18.836;2023-03-01T02:07:14;6.89;59.43
77693;SHT31;66984;47.404;18.836;2023-03-01T02:08:19;6.95;59.46
77693;SHT31;66984;47.404;18.836;2023-03-01T02:09:23;6.95;59.58
77693;SHT31;66984;47.404;18.836;2023-03-01T02:10:26;6.99;59.53
77693;SHT31;66984;47.404;18.836;2023-03-01T02:11:31;6.95;59.49
77693;SHT31;66984;47.404;18.836;2023-03-01T02:12:36;6.96;59.49
77693;SHT31;66984;47.404;18.836;2023-03-01T02:13:40;6.93;59.87
77693;SHT31;66984;47.404;18.836;2023-03-01T02:14:44;6.93;60.06
77693;SHT31;66984;47.404;18.836;2023-03-01T02:15:46;6.95;60.16
77693;SHT31;66984;47.404;18.836;2023-03-01T02:16:49;6.95;60.26
77693;SHT31;66984;47.404;18.836;2023-03-01T02:17:54;6.93;60.12
77693;SHT31;66984;47.404;18.836;2023-03-01T02:18:58;6.96;60.02
77693;SHT31;66984;47.404;18.836;2023-03-01T02:21:56;6.75;59.55
77693;SHT31;66984;47.404;18.836;2023-03-01T02:23:00;6.68;60.35
77693;SHT31;66984;47.404;18.836;2023-03-01T02:26:47;6.42;61.81
77693;SHT31;66984;47.404;18.836;2023-03-01T02:28:53;6.38;61.92
77693;SHT31;66984;47.404;18.836;2023-03-01T02:29:56;6.38;61.86
77693;SHT31;66984;47.404;18.836;2023-03-01T02:30:59;6.40;61.97
77693;SHT31;66984;47.404;18.836;2023-03-01T02:32:20;6.42;62.17
77693;SHT31;66984;47.404;18.836;2023-03-01T02:33:27;6.46;62.32
77693;SHT31;66984;47.404;18.836;2023-03-01T02:34:31;6.49;62.37
77693;SHT31;66984;47.404;18.836;2023-03-01T02:35:37;6.52;62.55
77693;SHT31;66984;47.404;18.836;2023-03-01T02:36:45;6.54;62.74
77693;SHT31;66984;47.404;18.836;2023-03-01T02:37:49;6.59;63.17
77693;SHT31;66984;47.404;18.836;2023-03-01T02:38:56;6.61;62.96
77693;SHT31;66984;47.404;18.836;2023-03-01T02:40:03;6.61;63.09
77693;SHT31;66984;47.404;18.836;2023-03-01T02:41:08;6.65;63.14
77693;SHT31;66984;47.404;18.836;2023-03-01T02:42:23;6.64;63.42
77693;SHT31;66984;47.404;18.836;2023-03-01T02:43:31;6.65;63.37
77693;SHT31;66984;47.404;18.836;2023-03-01T02:44:35;6.67;63.49
77693;SHT31;66984;47.404;18.836;2023-03-01T02:45:47;6.64;63.44
77693;SHT31;66984;47.404;18.836;2023-03-01T02:46:53;6.68;63.29
77693;SHT31;66984;47.404;18.836;2023-03-01T02:47:57;6.65;63.09
77693;SHT31;66984;47.404;18.836;2023-03-01T02:49:00;6.64;62.45
77693;SHT31;66984;47.404;18.836;2023-03-01T02:50:41;6.67;62.94
77693;SHT31;66984;47.404;18.836;2023-03-01T02:51:45;6.62;63.28
77693;SHT31;66984;47.404;18.836;2023-03-01T02:52:59;6.58;63.49
77693;SHT31;66984;47.404;18.836;2023-03-01T02:54:28;6.58;63.68
77693;SHT31;66984;47.404;18.836;2023-03-01T02:55:32;6.58;63.76
77693;SHT31;66984;47.404;18.836;2023-03-01T02:56:35;6.56;63.22
77693;SHT31;66984;47.404;18.836;2023-03-01T02:57:40;6.59;63.32
77693;SHT31;66984;47.404;18.836;2023-03-01T02:58:44;6.55;63.39
77693;SHT31;66984;47.404;18.836;2023-03-01T02:59:51;6.56;63.26
77693;SHT31;66984;47.404;18.836;2023-03-01T03:00:55;6.59;63.51
77693;SHT31;66984;47.404;18.836;2023-03-01T03:02:00;6.64;63.80
77693;SHT31;66984;47.404;18.836;2023-03-01T03:03:03;6.65;63.58
77693;SHT31;66984;47.404;18.836;2023-03-01T03:04:09;6.64;63.39
77693;SHT31;66984;47.404;18.836;2023-03-01T03:05:18;6.65;62.29
77693;SHT31;66984;47.404;18.836;2023-03-01T03:06:21;6.64;61.90
77693;SHT31;66984;47.404;18.836;2023-03-01T03:07:24;6.62;62.03
77693;SHT31;66984;47.404;18.836;2023-03-01T03:08:26;6.61;62.21
77693;SHT31;66984;47.404;18.836;2023-03-01T03:09:29;6.55;62.42
77693;SHT31;66984;47.404;18.836;2023-03-01T03:10:34;6.55;62.69
77693;SHT31;66984;47.404;18.836;2023-03-01T03:11:38;6.58;62.70
77693;SHT31;66984;47.404;18.836;2023-03-01T03:12:42;6.54;63.00
77693;SHT31;66984;47.404;18.836;2023-03-01T03:13:44;6.58;63.52
77693;SHT31;66984;47.404;18.836;2023-03-01T03:14:50;6.59;63.90
77693;SHT31;66984;47.404;18.836;2023-03-01T03:15:52;6.61;63.76
77693;SHT31;66984;47.404;18.836;2023-03-01T03:16:55;6.62;63.68
77693;SHT31;66984;47.404;18.836;2023-03-01T03:17:59;6.61;63.48
77693;SHT31;66984;47.404;18.836;2023-03-01T03:19:01;6.62;63.79
77693;SHT31;66984;47.404;18.836;2023-03-01T03:20:09;6.62;64.39
77693;SHT31;66984;47.404;18.836;2023-03-01T03:21:14;6.61;64.48
77693;SHT31;66984;47.404;18.836;2023-03-01T03:22:17;6.62;64.40
77693;SHT31;66984;47.404;18.836;2023-03-01T03:23:20;6.64;64.32
77693;SHT31;66984;47.404;18.836;2023-03-01T03:24:23;6.64;64.45
77693;SHT31;66984;47.404;18.836;2023-03-01T03:25:27;6.67;64.56
77693;SHT31;66984;47.404;18.836;2023-03-01T03:26:31;6.68;64.60
77693;SHT31;66984;47.404;18.836;2023-03-01T03:27:34;6.68;64.55
77693;SHT31;66984;47.404;18.836;2023-03-01T03:28:36;6.68;64.70
77693;SHT31;66984;47.404;18.836;2023-03-01T03:29:42;6.68;64.71
77693;SHT31;66984;47.404;18.836;2023-03-01T03:30:45;6.68;64.65
77693;SHT31;66984;47.404;18.836;2023-03-01T03:31:49;6.72;64.59
77693;SHT31;66984;47.404;18.836;2023-03-01T03:32:52;6.72;64.58
77693;SHT31;66984;47.404;18.836;2023-03-01T03:33:55;6.75;64.53
77693;SHT31;66984;47.404;18.836;2023-03-01T03:34:59;6.73;64.50
77693;SHT31;66984;47.404;18.836;2023-03-01T03:36:02;6.73;64.39
77693;SHT31;66984;47.404;18.836;2023-03-01T03:37:05;6.73;64.40
77693;SHT31;66984;47.404;18.836;2023-03-01T03:38:27;6.75;64.42
77693;SHT31;66984;47.404;18.836;2023-03-01T03:39:30;6.78;63.96
77693;SHT31;66984;47.404;18.836;2023-03-01T03:40:42;6.75;63.76
77693;SHT31;66984;47.404;18.836;2023-03-01T03:41:44;6.73;63.86
77693;SHT31;66984;47.404;18.836;2023-03-01T03:42:47;6.78;63.91
77693;SHT31;66984;47.404;18.836;2023-03-01T03:43:50;6.76;63.60
77693;SHT31;66984;47.404;18.836;2023-03-01T03:44:53;6.75;63.19
77693;SHT31;66984;47.404;18.836;2023-03-01T03:45:55;6.79;63.50
77693;SHT31;66984;47.404;18.836;2023-03-01T03:46:59;6.75;63.79
77693;SHT31;66984;47.404;18.836;2023-03-01T03:48:04;6.75;63.72
77693;SHT31;66984;47.404;18.836;2023-03-01T03:49:07;6.72;63.71
77693;SHT31;66984;47.404;18.836;2023-03-01T03:50:14;6.73;63.66
77693;SHT31;66984;47.404;18.836;2023-03-01T03:51:18;6.72;63.63
77693;SHT31;66984;47.404;18.836;2023-03-01T03:52:21;6.73;63.56
77693;SHT31;66984;47.404;18.836;2023-03-01T03:53:25;6.71;63.45
77693;SHT31;66984;47.404;18.836;2023-03-01T03:54:28;6.72;63.53
77693;SHT31;66984;47.404;18.836;2023-03-01T03:55:31;6.71;63.31
77693;SHT31;66984;47.404;18.836;2023-03-01T03:56:36;6.71;63.23
77693;SHT31;66984;47.404;18.836;2023-03-01T03:57:41;6.69;63.50
77693;SHT31;66984;47.404;18.836;2023-03-01T03:58:43;6.72;63.23
77693;SHT31;66984;47.404;18.836;2023-03-01T03:59:46;6.71;63.30
77693;SHT31;66984;47.404;18.836;2023-03-01T04:00:51;6.72;63.37
77693;SHT31;66984;47.404;18.836;2023-03-01T04:01:54;6.75;63.16
77693;SHT31;66984;47.404;18.836;2023-03-01T04:02:57;6.71;63.15
77693;SHT31;66984;47.404;18.836;2023-03-01T04:04:00;6.73;63.18
77693;SHT31;66984;47.404;18.836;2023-03-01T04:05:08;6.75;63.19
77693;SHT31;66984;47.404;18.836;2023-03-01T04:06:10;6.75;63.27
77693;SHT31;66984;47.404;18.836;2023-03-01T04:07:13;6.73;63.41
77693;SHT31;66984;47.404;18.836;2023-03-01T04:08:20;6.73;63.37
77693;SHT31;66984;47.404;18.836;2023-03-01T04:09:23;6.75;63.11
77693;SHT31;66984;47.404;18.836;2023-03-01T04:10:31;6.73;62.87
77693;SHT31;66984;47.404;18.836;2023-03-01T04:11:34;6.73;62.78
77693;SHT31;66984;47.404;18.836;2023-03-01T04:12:37;6.72;62.63
77693;SHT31;66984;47.404;18.836;2023-03-01T04:13:40;6.73;62.56
77693;SHT31;66984;47.404;18.836;2023-03-01T04:14:42;6.73;62.41
77693;SHT31;66984;47.404;18.836;2023-03-01T04:15:52;6.73;62.38
77693;SHT31;66984;47.404;18.836;2023-03-01T04:16:54;6.73;62.54
77693;SHT31;66984;47.404;18.836;2023-03-01T04:17:57;6.76;62.47
77693;SHT31;66984;47.404;18.836;2023-03-01T04:19:01;6.75;62.68
77693;SHT31;66984;47.404;18.836;2023-03-01T04:20:04;6.78;62.66
77693;SHT31;66984;47.404;18.836;2023-03-01T04:21:08;6.76;62.39
77693;SHT31;66984;47.404;18.836;2023-03-01T04:22:10;6.73;62.10
77693;SHT31;66984;47.404;18.836;2023-03-01T04:23:17;6.78;62.21
77693;SHT31;66984;47.404;18.836;2023-03-01T04:24:22;6.73;62.34
77693;SHT31;66984;47.404;18.836;2023-03-01T04:25:25;6.68;61.11
77693;SHT31;66984;47.404;18.836;2023-03-01T04:26:28;6.55;61.13
77693;SHT31;66984;47.404;18.836;2023-03-01T04:27:33;6.55;61.26
77693;SHT31;66984;47.404;18.836;2023-03-01T04:28:39;6.55;61.93
77693;SHT31;66984;47.404;18.836;2023-03-01T04:29:42;6.55;61.99
77693;SHT31;66984;47.404;18.836;2023-03-01T04:30:45;6.58;62.20
77693;SHT31;66984;47.404;18.836;2023-03-01T04:31:48;6.59;62.53
77693;SHT31;66984;47.404;18.836;2023-03-01T04:32:51;6.59;62.52
77693;SHT31;66984;47.404;18.836;2023-03-01T04:33:55;6.59;62.62
77693;SHT31;66984;47.404;18.836;2023-03-01T04:34:58;6.59;62.90
77693;SHT31;66984;47.404;18.836;2023-03-01T04:36:01;6.64;63.38
77693;SHT31;66984;47.404;18.836;2023-03-01T04:37:07;6.64;63.53
77693;SHT31;66984;47.404;18.836;2023-03-01T04:38:11;6.67;63.42
77693;SHT31;66984;47.404;18.836;2023-03-01T04:39:14;6.68;63.42
77693;SHT31;66984;47.404;18.836;2023-03-01T04:40:16;6.71;63.51
77693;SHT31;66984;47.404;18.836;2023-03-01T04:41:21;6.71;63.59
77693;SHT31;66984;47.404;18.836;2023-03-01T04:42:24;6.73;63.45
77693;SHT31;66984;47.404;18.836;2023-03-01T04:43:27;6.73;63.48
77693;SHT31;66984;47.404;18.836;2023-03-01T04:44:29;6.75;63.42
77693;SHT31;66984;47.404;18.836;2023-03-01T04:45:32;6.76;63.27
77693;SHT31;66984;47.404;18.836;2023-03-01T04:46:36;6.73;63.13
77693;SHT31;66984;47.404;18.836;2023-03-01T04:47:41;6.76;63.24
77693;SHT31;66984;47.404;18.836;2023-03-01T04:48:45;6.73;63.18
77693;SHT31;66984;47.404;18.836;2023-03-01T04:49:49;6.69;63.27
77693;SHT31;66984;47.404;18.836;2023-03-01T04:50:52;6.73;63.36
77693;SHT31;66984;47.404;18.836;2023-03-01T04:51:54;6.69;63.36
77693;SHT31;66984;47.404;18.836;2023-03-01T04:52:58;6.72;63.31
77693;SHT31;66984;47.404;18.836;2023-03-01T04:54:01;6.73;63.40
77693;SHT31;66984;47.404;18.836;2023-03-01T04:55:04;6.73;63.54
77693;SHT31;66984;47.404;18.836;2023-03-01T04:56:07;6.72;63.60
77693;SHT31;66984;47.404;18.836;2023-03-01T04:57:10;6.73;63.61
77693;SHT31;66984;47.404;18.836;2023-03-01T04:58:12;6.75;63.74
77693;SHT31;66984;47.404;18.836;2023-03-01T04:59:15;6.75;63.57
77693;SHT31;66984;47.404;18.836;2023-03-01T05:00:18;6.75;63.52
77693;SHT31;66984;47.404;18.836;2023-03-01T05:01:24;6.73;63.42
77693;SHT31;66984;47.404;18.836;2023-03-01T05:02:26;6.75;63.43
77693;SHT31;66984;47.404;18.836;2023-03-01T05:03:29;6.76;63.28
77693;SHT31;66984;47.404;18.836;2023-03-01T05:04:32;6.73;63.45
77693;SHT31;66984;47.404;18.836;2023-03-01T05:05:37;6.79;63.23
77693;SHT31;66984;47.404;18.836;2023-03-01T05:06:40;6.76;63.11
77693;SHT31;66984;47.404;18.836;2023-03-01T05:07:43;6.78;63.36
77693;SHT31;66984;47.404;18.836;2023-03-01T05:08:46;6.79;63.33
77693;SHT31;66984;47.404;18.836;2023-03-01T05:09:48;6.78;63.45
77693;SHT31;66984;47.404;18.836;2023-03-01T05:10:54;6.76;63.43
77693;SHT31;66984;47.404;18.836;2023-03-01T05:11:57;6.79;63.27
77693;SHT31;66984;47.404;18.836;2023-03-01T05:13:01;6.78;63.27
77693;SHT31;66984;47.404;18.836;2023-03-01T05:14:05;6.76;63.42
77693;SHT31;66984;47.404;18.836;2023-03-01T05:15:08;6.79;63.48
77693;SHT31;66984;47.404;18.836;2023-03-01T05:16:11;6.76;63.19
77693;SHT31;66984;47.404;18.836;2023-03-01T05:17:14;6.79;63.05
77693;SHT31;66984;47.404;18.836;2023-03-01T05:18:17;6.81;62.92
77693;SHT31;66984;47.404;18.836;2023-03-01T05:19:19;6.81;62.82
77693;SHT31;66984;47.404;18.836;2023-03-01T05:20:29;6.82;62.78
77693;SHT31;66984;47.404;18.836;2023-03-01T05:21:32;6.79;62.89
77693;SHT31;66984;47.404;18.836;2023-03-01T05:22:36;6.82;63.11
77693;SHT31;66984;47.404;18.836;2023-03-01T05:23:39;6.79;63.22
77693;SHT31;66984;47.404;18.836;2023-03-01T05:24:42;6.81;63.22
77693;SHT31;66984;47.404;18.836;2023-03-01T05:25:44;6.79;63.41
77693;SHT31;66984;47.404;18.836;2023-03-01T05:26:47;6.82;63.41
77693;SHT31;66984;47.404;18.836;2023-03-01T05:27:50;6.81;63.58
77693;SHT31;66984;47.404;18.836;2023-03-01T05:28:53;6.82;63.65
77693;SHT31;66984;47.404;18.836;2023-03-01T05:30:02;6.81;63.49
77693;SHT31;66984;47.404;18.836;2023-03-01T05:31:15;6.82;63.35
77693;SHT31;66984;47.404;18.836;2023-03-01T05:32:18;6.76;62.30
77693;SHT31;66984;47.404;18.836;2023-03-01T05:33:21;6.78;61.55
77693;SHT31;66984;47.404;18.836;2023-03-01T05:34:25;6.76;61.16
77693;SHT31;66984;47.404;18.836;2023-03-01T05:35:29;6.79;61.32
77693;SHT31;66984;47.404;18.836;2023-03-01T05:36:32;6.76;61.13
77693;SHT31;66984;47.404;18.836;2023-03-01T05:37:34;6.76;61.52
77693;SHT31;66984;47.404;18.836;2023-03-01T05:38:38;6.76;61.79
77693;SHT31;66984;47.404;18.836;2023-03-01T05:39:40;6.76;62.25
77693;SHT31;66984;47.404;18.836;2023-03-01T05:40:46;6.78;62.29
77693;SHT31;66984;47.404;18.836;2023-03-01T05:41:55;6.78;62.21
77693;SHT31;66984;47.404;18.836;2023-03-01T05:42:59;6.78;62.42
77693;SHT31;66984;47.404;18.836;2023-03-01T05:44:02;6.82;62.74
77693;SHT31;66984;47.404;18.836;2023-03-01T05:45:07;6.79;62.37
77693;SHT31;66984;47.404;18.836;2023-03-01T05:46:12;6.81;62.38
77693;SHT31;66984;47.404;18.836;2023-03-01T05:47:15;6.76;60.46
77693;SHT31;66984;47.404;18.836;2023-03-01T05:48:18;6.75;60.83
77693;SHT31;66984;47.404;18.836;2023-03-01T05:49:22;6.67;60.41
77693;SHT31;66984;47.404;18.836;2023-03-01T05:50:28;6.62;60.08
77693;SHT31;66984;47.404;18.836;2023-03-01T05:51:31;6.58;60.43
77693;SHT31;66984;47.404;18.836;2023-03-01T05:52:35;6.59;60.89
77693;SHT31;66984;47.404;18.836;2023-03-01T05:53:51;6.64;61.17
77693;SHT31;66984;47.404;18.836;2023-03-01T05:54:54;6.64;61.13
77693;SHT31;66984;47.404;18.836;2023-03-01T05:55:57;6.67;61.11
77693;SHT31;66984;47.404;18.836;2023-03-01T05:57:00;6.68;61.17
77693;SHT31;66984;47.404;18.836;2023-03-01T05:58:05;6.71;61.35
77693;SHT31;66984;47.404;18.836;2023-03-01T05:59:08;6.72;61.68
77693;SHT31;66984;47.404;18.836;2023-03-01T06:00:13;6.72;61.96
77693;SHT31;66984;47.404;18.836;2023-03-01T06:01:16;6.75;61.96
77693;SHT31;66984;47.404;18.836;2023-03-01T06:02:18;6.76;62.03
77693;SHT31;66984;47.404;18.836;2023-03-01T06:03:22;6.76;61.18
77693;SHT31;66984;47.404;18.836;2023-03-01T06:04:24;6.76;60.98
77693;SHT31;66984;47.404;18.836;2023-03-01T06:05:28;6.82;60.89
77693;SHT31;66984;47.404;18.836;2023-03-01T06:06:37;6.83;60.92
77693;SHT31;66984;47.404;18.836;2023-03-01T06:07:41;6.85;61.02
77693;SHT31;66984;47.404;18.836;2023-03-01T06:08:43;6.86;61.30
77693;SHT31;66984;47.404;18.836;2023-03-01T06:09:46;6.86;61.44
77693;SHT31;66984;47.404;18.836;2023-03-01T06:10:49;6.86;61.47
77693;SHT31;66984;47.404;18.836;2023-03-01T06:11:51;6.86;61.73
77693;SHT31;66984;47.404;18.836;2023-03-01T06:12:55;6.91;61.85
77693;SHT31;66984;47.404;18.836;2023-03-01T06:13:58;6.92;61.83
77693;SHT31;66984;47.404;18.836;2023-03-01T06:15:01;6.89;61.94
77693;SHT31;66984;47.404;18.836;2023-03-01T06:16:05;6.92;62.07
77693;SHT31;66984;47.404;18.836;2023-03-01T06:17:08;6.91;62.03
77693;SHT31;66984;47.404;18.836;2023-03-01T06:18:11;6.89;62.00
77693;SHT31;66984;47.404;18.836;2023-03-01T06:19:14;6.92;62.08
77693;SHT31;66984;47.404;18.836;2023-03-01T06:20:20;6.93;61.89
77693;SHT31;66984;47.404;18.836;2023-03-01T06:21:23;6.92;61.78
77693;SHT31;66984;47.404;18.836;2023-03-01T06:22:26;6.96;61.71
77693;SHT31;66984;47.404;18.836;2023-03-01T06:23:29;6.96;61.75
77693;SHT31;66984;47.404;18.836;2023-03-01T06:24:32;6.99;61.93
77693;SHT31;66984;47.404;18.836;2023-03-01T06:25:35;7.00;61.94
77693;SHT31;66984;47.404;18.836;2023-03-01T06:26:38;7.03;62.25
77693;SHT31;66984;47.404;18.836;2023-03-01T06:27:41;7.04;62.47
77693;SHT31;66984;47.404;18.836;2023-03-01T06:28:44;7.06;62.28
77693;SHT31;66984;47.404;18.836;2023-03-01T06:29:48;7.04;62.05
77693;SHT31;66984;47.404;18.836;2023-03-01T06:30:51;7.06;61.14
77693;SHT31;66984;47.404;18.836;2023-03-01T06:31:54;7.04;60.77
77693;SHT31;66984;47.404;18.836;2023-03-01T06:32:57;7.00;60.54
77693;SHT31;66984;47.404;18.836;2023-03-01T06:34:03;7.04;60.65
77693;SHT31;66984;47.404;18.836;2023-03-01T06:35:06;7.03;60.72
77693;SHT31;66984;47.404;18.836;2023-03-01T06:36:11;7.06;60.75
77693;SHT31;66984;47.404;18.836;2023-03-01T06:37:14;7.00;60.70
77693;SHT31;66984;47.404;18.836;2023-03-01T06:38:17;6.99;60.17
77693;SHT31;66984;47.404;18.836;2023-03-01T06:39:21;6.99;59.97
77693;SHT31;66984;47.404;18.836;2023-03-01T06:40:24;7.00;59.97
77693;SHT31;66984;47.404;18.836;2023-03-01T06:41:26;6.97;59.87
77693;SHT31;66984;47.404;18.836;2023-03-01T06:42:29;6.96;59.94
77693;SHT31;66984;47.404;18.836;2023-03-01T06:43:32;6.99;60.24
77693;SHT31;66984;47.404;18.836;2023-03-01T06:44:34;6.97;60.09
77693;SHT31;66984;47.404;18.836;2023-03-01T06:45:37;6.96;60.29
77693;SHT31;66984;47.404;18.836;2023-03-01T06:46:40;6.93;60.18
77693;SHT31;66984;47.404;18.836;2023-03-01T06:47:43;6.81;60.03
77693;SHT31;66984;47.404;18.836;2023-03-01T06:48:46;6.71;60.53
77693;SHT31;66984;47.404;18.836;2023-03-01T06:49:48;6.73;61.00
77693;SHT31;66984;47.404;18.836;2023-03-01T06:50:51;6.73;61.16